createdAt,value
2019-02-27T00:00:44.044Z,3.98
2019-02-27T00:01:42.491Z,4.11
2019-02-27T00:02:42.515Z,4.14
2019-02-27T00:03:42.540Z,4.15
2019-02-27T00:04:42.565Z,4.36
2019-02-27T00:05:42.592Z,4.33
2019-02-27T00:06:42.618Z,4.41
2019-02-27T00:07:42.651Z,4.51
2019-02-27T00:08:42.672Z,4.65
2019-02-27T00:09:42.703Z,4.63
2019-02-27T00:10:42.724Z,4.75
2019-02-27T00:11:45.992Z,4.75
2019-02-27T00:12:44.006Z,4.70
2019-02-27T00:14:42.830Z,4.70
2019-02-27T00:18:44.165Z,5.13
2019-02-27T00:19:43.166Z,5.10
2019-02-27T00:28:44.259Z,5.03
2019-02-27T00:31:46.065Z,4.99
2019-02-27T00:33:44.389Z,4.97
2019-02-27T00:41:36.745Z,4.99
2019-02-27T00:42:36.772Z,4.99
2019-02-27T00:45:39.693Z,4.92
2019-02-27T00:46:36.875Z,4.89
2019-02-27T00:48:37.131Z,4.84
2019-02-27T00:49:36.955Z,4.82
2019-02-27T00:50:39.171Z,4.94
2019-02-27T00:51:37.006Z,4.84
2019-02-27T00:52:37.032Z,4.89
2019-02-27T00:53:37.056Z,4.80
2019-02-27T00:54:37.084Z,4.80
2019-02-27T00:55:39.317Z,4.80
2019-02-27T00:56:37.136Z,4.78
2019-02-27T00:57:37.219Z,4.62
2019-02-27T00:58:37.188Z,4.47
2019-02-27T00:59:37.215Z,4.45
2019-02-27T01:00:39.339Z,4.51
2019-02-27T01:01:37.267Z,4.47
2019-02-27T01:02:37.294Z,4.54
2019-02-27T01:03:37.323Z,4.50
2019-02-27T01:04:37.348Z,4.58
2019-02-27T01:05:40.956Z,4.65
2019-02-27T01:06:37.398Z,4.70
2019-02-27T01:07:37.426Z,4.67
2019-02-27T01:08:37.448Z,4.72
2019-02-27T01:09:39.562Z,4.47
2019-02-27T01:10:37.503Z,4.36
2019-02-27T01:11:37.529Z,4.24
2019-02-27T01:12:37.553Z,4.20
2019-02-27T01:13:37.581Z,4.18
2019-02-27T01:14:37.688Z,4.42
2019-02-27T01:15:37.633Z,4.41
2019-02-27T01:16:37.658Z,4.34
2019-02-27T01:17:37.684Z,4.47
2019-02-27T01:18:37.914Z,4.33
2019-02-27T01:20:46.390Z,4.37
2019-02-27T01:23:45.618Z,4.51
2019-02-27T01:24:45.441Z,4.51
2019-02-27T01:37:49.769Z,3.54
2019-02-27T01:38:49.795Z,3.54
2019-02-27T01:39:49.822Z,3.61
2019-02-27T01:40:51.540Z,3.65
2019-02-27T01:41:49.874Z,3.80
2019-02-27T01:42:49.899Z,3.84
2019-02-27T01:43:49.924Z,3.80
2019-02-27T01:44:49.952Z,3.73
2019-02-27T01:45:51.841Z,3.54
2019-02-27T01:46:50.000Z,3.78
2019-02-27T01:47:50.027Z,3.79
2019-02-27T01:48:50.053Z,3.90
2019-02-27T01:49:50.079Z,3.84
2019-02-27T01:50:50.105Z,3.87
2019-02-27T01:51:50.130Z,3.90
2019-02-27T01:52:50.155Z,3.90
2019-02-27T01:53:50.183Z,3.90
2019-02-27T01:54:50.212Z,3.83
2019-02-27T01:55:50.232Z,3.83
2019-02-27T01:56:50.260Z,3.69
2019-02-27T01:57:50.286Z,3.51
2019-02-27T01:58:50.310Z,3.35
2019-02-27T01:59:51.031Z,3.15
2019-02-27T02:00:50.362Z,3.06
2019-02-27T02:01:50.388Z,3.02
2019-02-27T02:02:50.413Z,3.05
2019-02-27T02:03:50.449Z,3.14
2019-02-27T02:04:53.104Z,3.33
2019-02-27T02:06:50.517Z,3.58
2019-02-27T02:07:50.548Z,3.51
2019-02-27T02:08:50.568Z,3.33
2019-02-27T02:09:52.076Z,3.17
2019-02-27T02:10:50.619Z,3.15
2019-02-27T02:11:50.644Z,2.81
2019-02-27T02:12:50.670Z,2.69
2019-02-27T02:13:50.696Z,2.61
2019-02-27T02:14:54.092Z,2.56
2019-02-27T02:15:50.749Z,2.42
2019-02-27T02:16:50.775Z,2.46
2019-02-27T02:17:50.799Z,2.43
2019-02-27T02:18:50.822Z,2.54
2019-02-27T02:19:53.970Z,2.66
2019-02-27T02:20:50.875Z,2.71
2019-02-27T02:21:50.902Z,2.77
2019-02-27T02:22:51.127Z,2.93
2019-02-27T02:38:36.758Z,2.74
2019-02-27T02:39:36.843Z,2.74
2019-02-27T02:40:36.810Z,2.71
2019-02-27T02:41:36.833Z,2.75
2019-02-27T02:42:36.860Z,2.67
2019-02-27T02:43:40.649Z,2.45
2019-02-27T02:44:36.961Z,2.36
2019-02-27T02:45:36.935Z,2.27
2019-02-27T02:46:36.962Z,2.21
2019-02-27T02:47:36.986Z,2.43
2019-02-27T02:48:37.014Z,2.56
2019-02-27T02:49:42.085Z,2.57
2019-02-27T02:50:37.062Z,2.78
2019-02-27T02:51:37.089Z,2.96
2019-02-27T02:52:40.819Z,3.03
2019-02-27T02:53:37.139Z,3.06
2019-02-27T02:54:37.914Z,2.95
2019-02-27T02:56:37.417Z,2.66
2019-02-27T03:01:14.026Z,3.35
2019-02-27T03:10:28.532Z,3.31
2019-02-27T03:13:28.608Z,3.29
2019-02-27T03:14:28.631Z,3.24
2019-02-27T03:15:29.579Z,3.33
2019-02-27T03:16:28.687Z,3.24
2019-02-27T03:17:28.706Z,3.21
2019-02-27T03:18:29.729Z,3.18
2019-02-27T03:19:28.961Z,3.17
2019-02-27T03:20:28.783Z,2.97
2019-02-27T03:21:29.003Z,2.87
2019-02-27T03:24:29.049Z,3.18
2019-02-27T03:25:28.911Z,3.36
2019-02-27T03:26:28.937Z,3.45
2019-02-27T03:29:29.215Z,3.73
2019-02-27T03:31:29.064Z,3.65
2019-02-27T03:32:29.094Z,3.69
2019-02-27T03:34:29.341Z,3.70
2019-02-27T03:35:29.520Z,3.61
2019-02-27T03:36:29.391Z,3.55
2019-02-27T03:37:29.423Z,3.62
2019-02-27T03:38:29.241Z,3.54
2019-02-27T03:39:34.324Z,3.43
2019-02-27T03:40:29.294Z,3.50
2019-02-27T03:41:29.518Z,3.54
2019-02-27T03:42:30.867Z,3.51
2019-02-27T03:43:29.368Z,3.55
2019-02-27T03:44:29.402Z,3.55
2019-02-27T03:46:29.444Z,3.52
2019-02-27T03:47:29.678Z,3.68
2019-02-27T03:48:29.493Z,3.55
2019-02-27T03:49:29.519Z,3.58
2019-02-27T03:50:32.578Z,3.50
2019-02-27T03:51:29.571Z,3.45
2019-02-27T03:52:36.028Z,3.28
2019-02-27T03:53:29.626Z,3.17
2019-02-27T03:54:30.053Z,3.03
2019-02-27T03:55:32.904Z,2.96
2019-02-27T03:56:29.900Z,2.84
2019-02-27T03:57:30.345Z,2.75
2019-02-27T03:58:30.676Z,2.61
2019-02-27T04:00:29.804Z,2.49
2019-02-27T04:01:31.437Z,2.48
2019-02-27T04:02:30.056Z,2.46
2019-02-27T04:03:31.107Z,2.53
2019-02-27T04:27:36.143Z,1.62
2019-02-27T04:28:36.166Z,1.66
2019-02-27T04:29:40.878Z,1.58
2019-02-27T04:30:36.218Z,1.62
2019-02-27T04:31:36.246Z,1.48
2019-02-27T04:32:36.268Z,1.51
2019-02-27T04:33:36.294Z,1.59
2019-02-27T04:34:36.315Z,1.55
2019-02-27T04:35:39.215Z,1.55
2019-02-27T04:36:36.367Z,1.51
2019-02-27T04:37:36.393Z,1.50
2019-02-27T04:38:36.417Z,1.45
2019-02-27T04:39:38.245Z,1.45
2019-02-27T04:40:36.467Z,1.47
2019-02-27T04:41:36.492Z,1.37
2019-02-27T04:42:36.517Z,1.40
2019-02-27T04:43:36.542Z,1.47
2019-02-27T04:44:38.879Z,1.40
2019-02-27T04:45:36.594Z,1.47
2019-02-27T04:52:02.100Z,1.36
2019-02-27T04:53:02.324Z,1.42
2019-02-27T04:57:02.224Z,1.76
2019-02-27T04:58:02.248Z,1.80
2019-02-27T05:00:02.301Z,1.79
2019-02-27T05:01:02.324Z,1.68
2019-02-27T05:02:02.550Z,1.65
2019-02-27T05:03:02.575Z,1.66
2019-02-27T05:04:02.400Z,1.59
2019-02-27T05:05:02.423Z,1.59
2019-02-27T05:06:02.448Z,1.50
2019-02-27T05:07:02.473Z,1.59
2019-02-27T05:08:02.704Z,1.54
2019-02-27T05:09:02.527Z,1.66
2019-02-27T05:11:02.572Z,1.90
2019-02-27T05:12:02.598Z,2.06
2019-02-27T05:13:02.632Z,2.16
2019-02-27T05:14:02.647Z,2.06
2019-02-27T05:15:04.063Z,1.98
2019-02-27T05:16:02.699Z,1.72
2019-02-27T05:17:02.722Z,1.51
2019-02-27T05:18:02.746Z,1.48
2019-02-27T05:19:03.983Z,1.52
2019-02-27T05:20:02.797Z,1.47
2019-02-27T05:21:02.821Z,1.32
2019-02-27T05:22:02.848Z,1.37
2019-02-27T05:23:02.870Z,1.37
2019-02-27T05:25:02.920Z,1.23
2019-02-27T05:26:03.148Z,1.20
2019-02-27T05:30:03.045Z,1.27
2019-02-27T05:31:03.069Z,1.32
2019-02-27T05:32:03.093Z,1.23
2019-02-27T05:33:03.119Z,1.27
2019-02-27T05:34:03.144Z,1.18
2019-02-27T05:35:03.168Z,1.26
2019-02-27T05:36:03.192Z,1.20
2019-02-27T05:37:05.295Z,1.15
2019-02-27T05:38:03.242Z,1.14
2019-02-27T05:39:03.266Z,1.15
2019-02-27T05:40:03.291Z,1.12
2019-02-27T05:41:03.321Z,1.16
2019-02-27T05:42:06.062Z,1.16
2019-02-27T05:43:03.366Z,1.14
2019-02-27T05:44:03.394Z,1.22
2019-02-27T05:45:03.420Z,1.22
2019-02-27T05:46:03.831Z,1.34
2019-02-27T05:47:03.469Z,1.40
2019-02-27T05:48:03.489Z,1.33
2019-02-27T05:49:03.515Z,1.40
2019-02-27T05:50:03.553Z,1.59
2019-02-27T05:51:04.916Z,1.66
2019-02-27T05:52:03.589Z,1.86
2019-02-27T05:53:03.613Z,1.84
2019-02-27T05:54:03.636Z,1.98
2019-02-27T05:55:06.225Z,1.90
2019-02-27T05:56:03.738Z,1.98
2019-02-27T05:57:03.713Z,2.16
2019-02-27T05:58:03.735Z,2.35
2019-02-27T05:59:03.760Z,2.46
2019-02-27T06:00:03.792Z,2.57
2019-02-27T06:01:04.951Z,2.54
2019-02-27T06:02:03.832Z,2.56
2019-02-27T06:03:03.858Z,2.39
2019-02-27T06:04:03.883Z,2.45
2019-02-27T06:05:03.908Z,2.31
2019-02-27T06:06:03.931Z,2.27
2019-02-27T06:07:03.955Z,2.27
2019-02-27T06:08:03.981Z,2.06
2019-02-27T06:09:04.005Z,1.84
2019-02-27T06:10:04.184Z,1.84
2019-02-27T06:11:04.053Z,1.77
2019-02-27T06:12:06.968Z,1.51
2019-02-27T06:13:04.103Z,1.47
2019-02-27T06:14:04.127Z,1.44
2019-02-27T06:15:04.151Z,1.37
2019-02-27T06:16:08.250Z,1.44
2019-02-27T06:17:04.201Z,1.37
2019-02-27T06:18:04.226Z,1.30
2019-02-27T06:19:04.250Z,1.33
2019-02-27T06:20:07.628Z,1.37
2019-02-27T06:21:04.302Z,1.26
2019-02-27T06:22:05.865Z,1.32
2019-02-27T06:23:05.001Z,1.23
2019-02-27T06:24:04.389Z,1.18
2019-02-27T06:25:04.399Z,1.30
2019-02-27T06:26:04.423Z,1.23
2019-02-27T06:27:06.402Z,1.30
2019-02-27T06:28:04.472Z,1.27
2019-02-27T06:29:04.497Z,1.32
2019-02-27T06:30:04.522Z,1.32
2019-02-27T06:31:04.545Z,1.29
2019-02-27T06:32:04.570Z,1.29
2019-02-27T06:33:04.596Z,1.40
2019-02-27T06:34:04.620Z,1.37
2019-02-27T06:35:04.643Z,1.40
2019-02-27T06:36:05.312Z,1.42
2019-02-27T06:37:04.692Z,1.45
2019-02-27T06:38:04.717Z,1.52
2019-02-27T06:39:04.742Z,1.59
2019-02-27T06:40:07.513Z,1.54
2019-02-27T06:41:04.792Z,1.52
2019-02-27T06:42:04.860Z,1.52
2019-02-27T06:43:04.841Z,1.54
2019-02-27T06:44:04.866Z,1.76
2019-02-27T06:45:04.890Z,1.88
2019-02-27T06:46:04.923Z,2.17
2019-02-27T06:47:07.057Z,2.27
2019-02-27T06:48:09.483Z,2.42
2019-02-27T06:49:04.989Z,2.57
2019-02-27T06:50:05.013Z,2.66
2019-02-27T06:51:05.039Z,2.66
2019-02-27T06:52:09.035Z,2.66
2019-02-27T06:53:05.087Z,2.75
2019-02-27T06:54:05.113Z,2.93
2019-02-27T06:55:05.137Z,2.85
2019-02-27T06:56:05.162Z,2.87
2019-02-27T06:57:07.500Z,2.97
2019-02-27T06:58:05.211Z,3.02
2019-02-27T06:59:05.291Z,3.06
2019-02-27T07:00:05.299Z,3.17
2019-02-27T07:01:09.482Z,3.33
2019-02-27T07:02:05.312Z,3.35
2019-02-27T07:03:05.336Z,3.43
2019-02-27T07:04:05.458Z,3.51
2019-02-27T07:05:05.385Z,3.54
2019-02-27T07:06:05.409Z,3.58
2019-02-27T07:07:05.435Z,3.79
2019-02-27T07:08:05.461Z,3.72
2019-02-27T07:09:05.486Z,3.76
2019-02-27T07:10:05.513Z,3.80
2019-02-27T07:11:10.950Z,3.86
2019-02-27T07:12:07.133Z,3.91
2019-02-27T07:13:05.602Z,3.84
2019-02-27T07:14:05.638Z,3.87
2019-02-27T07:15:05.674Z,3.87
2019-02-27T07:16:05.659Z,3.76
2019-02-27T07:17:05.686Z,3.70
2019-02-27T07:18:06.692Z,3.84
2019-02-27T07:19:05.737Z,3.86
2019-02-27T07:20:05.762Z,3.83
2019-02-27T07:21:05.790Z,3.86
2019-02-27T07:22:06.343Z,3.84
2019-02-27T07:23:05.836Z,3.76
2019-02-27T07:24:05.862Z,3.73
2019-02-27T07:25:06.641Z,3.84
2019-02-27T07:26:05.912Z,3.87
2019-02-27T07:27:05.938Z,3.90
2019-02-27T07:28:08.157Z,3.97
2019-02-27T07:29:05.990Z,4.05
2019-02-27T07:30:07.471Z,4.15
2019-02-27T07:31:06.053Z,4.37
2019-02-27T07:32:06.068Z,4.40
2019-02-27T07:33:06.745Z,4.51
2019-02-27T07:34:06.125Z,4.55
2019-02-27T07:35:06.144Z,4.72
2019-02-27T07:36:06.170Z,4.75
2019-02-27T07:37:06.197Z,4.85
2019-02-27T07:38:06.221Z,4.88
2019-02-27T07:39:06.253Z,4.89
2019-02-27T07:40:08.549Z,5.00
2019-02-27T07:41:06.301Z,5.00
2019-02-27T07:42:06.328Z,4.97
2019-02-27T07:43:06.442Z,5.03
2019-02-27T07:44:06.381Z,5.12
2019-02-27T07:45:08.101Z,5.21
2019-02-27T07:46:06.440Z,5.33
2019-02-27T07:47:06.461Z,5.42
2019-02-27T07:48:06.488Z,5.49
2019-02-27T07:49:06.515Z,5.65
2019-02-27T07:50:08.697Z,5.79
2019-02-27T07:51:06.569Z,5.91
2019-02-27T07:52:06.596Z,6.04
2019-02-27T07:53:06.624Z,6.22
2019-02-27T07:54:06.649Z,6.34
2019-02-27T07:55:18.560Z,6.55
2019-02-27T07:56:06.704Z,6.73
2019-02-27T07:57:06.733Z,6.77
2019-02-27T07:58:06.760Z,6.85
2019-02-27T07:59:06.787Z,6.91
2019-02-27T08:00:06.814Z,7.09
2019-02-27T08:01:06.842Z,7.13
2019-02-27T08:02:06.869Z,7.31
2019-02-27T08:03:09.387Z,7.37
2019-02-27T08:04:06.925Z,7.46
2019-02-27T08:05:06.955Z,7.63
2019-02-27T08:06:54.537Z,7.83
2019-02-27T08:07:54.565Z,7.83
2019-02-27T08:08:56.936Z,7.97
2019-02-27T08:09:54.621Z,8.19
2019-02-27T08:10:54.649Z,8.52
2019-02-27T08:11:54.677Z,8.66
2019-02-27T08:12:56.407Z,9.04
2019-02-27T08:13:54.785Z,9.84
2019-02-27T08:14:54.765Z,10.97
2019-02-27T08:15:54.791Z,12.72
2019-02-27T08:16:57.186Z,14.00
2019-02-27T08:17:57.644Z,15.38
2019-02-27T08:18:54.878Z,16.64
2019-02-27T08:19:54.914Z,17.49
2019-02-27T08:20:55.256Z,17.87
2019-02-27T08:21:54.965Z,18.50
2019-02-27T08:22:54.995Z,18.66
2019-02-27T08:23:55.264Z,18.94
2019-02-27T08:24:55.055Z,19.62
2019-02-27T08:25:55.086Z,20.39
2019-02-27T08:26:55.117Z,21.21
2019-02-27T08:27:55.146Z,21.68
2019-02-27T08:28:55.176Z,22.37
2019-02-27T08:29:55.207Z,22.76
2019-02-27T08:30:55.238Z,22.88
2019-02-27T08:31:55.269Z,23.09
2019-02-27T08:32:55.401Z,23.10
2019-02-27T08:33:55.341Z,23.28
2019-02-27T08:34:55.362Z,23.55
2019-02-27T08:35:55.395Z,23.73
2019-02-27T08:36:55.426Z,23.72
2019-02-27T08:38:02.282Z,23.75
2019-02-27T08:38:55.491Z,23.66
2019-02-27T08:39:55.548Z,23.85
2019-02-27T08:40:58.269Z,23.97
2019-02-27T08:41:55.588Z,24.18
2019-02-27T08:42:55.624Z,24.16
2019-02-27T08:43:55.655Z,24.03
2019-02-27T08:44:55.687Z,24.25
2019-02-27T08:45:55.745Z,24.02
2019-02-27T08:46:55.757Z,23.40
2019-02-27T08:47:55.941Z,23.47
2019-02-27T08:48:55.821Z,23.68
2019-02-27T08:49:58.069Z,23.94
2019-02-27T08:50:55.890Z,24.20
2019-02-27T08:51:55.925Z,24.37
2019-02-27T08:52:57.823Z,24.21
2019-02-27T08:53:59.069Z,24.21
2019-02-27T08:54:56.029Z,24.55
2019-02-27T08:55:56.064Z,24.37
2019-02-27T08:56:56.107Z,24.39
2019-02-27T08:57:57.091Z,24.32
2019-02-27T08:58:56.171Z,24.98
2019-02-27T08:59:56.207Z,24.93
2019-02-27T09:00:56.244Z,25.51
2019-02-27T09:01:56.485Z,26.07
2019-02-27T09:02:56.314Z,26.01
2019-02-27T09:03:56.411Z,26.30
2019-02-27T09:04:56.388Z,26.55
2019-02-27T09:05:56.426Z,26.50
2019-02-27T09:07:02.325Z,26.62
2019-02-27T09:07:56.499Z,25.76
2019-02-27T09:08:56.538Z,26.32
2019-02-27T09:09:56.575Z,25.39
2019-02-27T09:10:56.612Z,24.88
2019-02-27T09:11:56.651Z,24.25
2019-02-27T09:13:05.034Z,23.16
2019-02-27T09:13:56.726Z,22.52
2019-02-27T09:14:56.769Z,22.12
2019-02-27T09:15:56.802Z,21.21
2019-02-27T09:16:56.840Z,20.91
2019-02-27T09:17:59.215Z,20.62
2019-02-27T09:18:56.917Z,21.21
2019-02-27T09:19:56.962Z,21.22
2019-02-27T09:20:56.995Z,21.72
2019-02-27T09:21:57.042Z,21.54
2019-02-27T09:22:57.077Z,21.79
2019-02-27T09:23:57.112Z,21.54
2019-02-27T09:24:57.259Z,22.55
2019-02-27T09:25:57.632Z,22.17
2019-02-27T09:26:57.231Z,20.55
2019-02-27T09:27:57.270Z,21.31
2019-02-27T09:28:57.308Z,19.66
2019-02-27T09:29:57.348Z,19.63
2019-02-27T09:30:57.387Z,19.51
2019-02-27T09:31:57.428Z,19.39
2019-02-27T09:32:57.465Z,19.91
2019-02-27T09:33:57.505Z,20.76
2019-02-27T09:34:59.600Z,20.82
2019-02-27T09:35:57.586Z,20.69
2019-02-27T09:36:57.624Z,20.67
2019-02-27T09:37:57.666Z,20.79
2019-02-27T09:38:57.786Z,20.47
2019-02-27T09:40:57.785Z,20.59
2019-02-27T09:41:57.826Z,20.92
2019-02-27T09:42:57.865Z,21.21
2019-02-27T09:43:58.588Z,21.69
2019-02-27T09:44:57.946Z,21.38
2019-02-27T09:45:57.988Z,20.99
2019-02-27T09:46:58.026Z,20.84
2019-02-27T09:47:59.991Z,21.13
2019-02-27T09:48:58.106Z,21.31
2019-02-27T09:49:58.148Z,21.07
2019-02-27T09:50:58.191Z,21.50
2019-02-27T09:51:58.228Z,21.29
2019-02-27T09:53:01.096Z,22.10
2019-02-27T09:53:58.309Z,21.68
2019-02-27T09:54:58.354Z,22.43
2019-02-27T09:55:58.393Z,22.64
2019-02-27T09:57:02.071Z,23.19
2019-02-27T09:57:58.478Z,22.52
2019-02-27T09:58:58.516Z,22.70
2019-02-27T09:59:58.562Z,22.70
2019-02-27T10:01:00.309Z,22.61
2019-02-27T10:01:58.640Z,22.43
2019-02-27T10:02:58.683Z,22.64
2019-02-27T10:03:58.724Z,22.47
2019-02-27T10:05:03.159Z,20.98
2019-02-27T10:05:58.809Z,21.43
2019-02-27T10:06:58.850Z,21.13
2019-02-27T10:07:58.891Z,20.91
2019-02-27T10:08:59.214Z,21.75
2019-02-27T10:09:58.976Z,21.71
2019-02-27T10:10:59.018Z,21.99
2019-02-27T10:11:59.060Z,22.22
2019-02-27T10:12:59.917Z,22.10
2019-02-27T10:13:59.144Z,22.15
2019-02-27T10:14:59.207Z,22.68
2019-02-27T10:16:01.371Z,23.23
2019-02-27T10:16:59.274Z,22.98
2019-02-27T10:17:59.313Z,21.94
2019-02-27T10:18:59.357Z,20.88
2019-02-27T10:20:02.478Z,22.22
2019-02-27T10:20:59.442Z,22.42
2019-02-27T10:21:59.486Z,22.57
2019-02-27T10:22:59.854Z,22.09
2019-02-27T10:23:59.570Z,22.62
2019-02-27T10:24:59.614Z,22.28
2019-02-27T10:25:59.654Z,22.30
2019-02-27T10:26:59.698Z,22.18
2019-02-27T10:28:03.254Z,22.25
2019-02-27T10:28:59.792Z,22.18
2019-02-27T10:29:59.826Z,22.18
2019-02-27T10:30:59.869Z,21.82
2019-02-27T10:32:00.797Z,22.79
2019-02-27T10:32:59.956Z,22.62
2019-02-27T10:34:00.501Z,21.99
2019-02-27T10:35:00.048Z,22.37
2019-02-27T10:36:03.033Z,22.83
2019-02-27T10:37:00.262Z,23.36
2019-02-27T10:38:00.175Z,23.17
2019-02-27T10:39:02.057Z,24.09
2019-02-27T10:40:00.346Z,24.20
2019-02-27T10:41:00.301Z,24.34
2019-02-27T10:42:00.353Z,24.10
2019-02-27T10:43:00.389Z,23.69
2019-02-27T10:44:00.435Z,24.21
2019-02-27T10:45:00.477Z,24.21
2019-02-27T10:46:00.521Z,24.25
2019-02-27T10:47:00.789Z,23.98
2019-02-27T10:48:00.609Z,24.00
2019-02-27T10:49:00.655Z,24.43
2019-02-27T10:50:02.134Z,25.00
2019-02-27T10:51:00.744Z,24.39
2019-02-27T10:52:00.786Z,24.81
2019-02-27T10:53:00.835Z,25.88
2019-02-27T10:54:04.647Z,24.96
2019-02-27T10:55:00.922Z,25.32
2019-02-27T10:56:00.964Z,24.85
2019-02-27T10:57:01.008Z,24.13
2019-02-27T10:58:01.053Z,24.61
2019-02-27T10:59:01.099Z,24.16
2019-02-27T11:00:01.159Z,24.27
2019-02-27T11:01:01.827Z,24.50
2019-02-27T11:02:01.235Z,24.98
2019-02-27T11:03:01.278Z,24.40
2019-02-27T11:04:03.112Z,25.28
2019-02-27T11:05:01.374Z,26.02
2019-02-27T11:06:01.416Z,25.75
2019-02-27T11:07:01.459Z,26.32
2019-02-27T11:08:01.508Z,25.76
2019-02-27T11:09:04.451Z,25.70
2019-02-27T11:10:01.596Z,26.32
2019-02-27T11:11:01.643Z,26.15
2019-02-27T11:12:01.689Z,26.70
2019-02-27T11:13:05.471Z,27.25
2019-02-27T11:14:01.779Z,27.85
2019-02-27T11:15:01.827Z,26.92
2019-02-27T11:16:01.881Z,26.65
2019-02-27T11:17:02.677Z,26.54
2019-02-27T11:18:05.552Z,25.79
2019-02-27T11:19:02.010Z,26.70
2019-02-27T11:20:02.065Z,27.51
2019-02-27T11:21:02.335Z,27.94
2019-02-27T11:22:02.149Z,28.03
2019-02-27T11:23:06.406Z,28.83
2019-02-27T11:24:02.264Z,28.12
2019-02-27T11:25:02.289Z,27.44
2019-02-27T11:26:02.337Z,28.34
2019-02-27T11:27:03.456Z,28.03
2019-02-27T11:28:02.433Z,27.22
2019-02-27T11:29:02.481Z,27.67
2019-02-27T11:30:03.221Z,27.55
2019-02-27T11:31:02.572Z,27.41
2019-02-27T11:32:02.619Z,26.43
2019-02-27T11:33:02.665Z,26.65
2019-02-27T11:34:05.078Z,26.92
2019-02-27T11:35:02.760Z,27.54
2019-02-27T11:36:05.749Z,27.84
2019-02-27T11:37:04.370Z,27.93
2019-02-27T11:38:02.915Z,27.69
2019-02-27T11:39:04.772Z,28.27
2019-02-27T11:40:05.413Z,27.97
2019-02-27T11:41:03.051Z,28.19
2019-02-27T11:42:03.091Z,28.06
2019-02-27T11:43:06.295Z,27.66
2019-02-27T11:44:03.187Z,27.41
2019-02-27T11:45:03.260Z,28.41
2019-02-27T11:46:03.280Z,28.88
2019-02-27T11:47:03.330Z,27.77
2019-02-27T11:48:03.378Z,28.31
2019-02-27T11:49:03.423Z,28.29
2019-02-27T11:50:04.304Z,28.71
2019-02-27T11:51:03.518Z,29.00
2019-02-27T11:52:03.898Z,28.85
2019-02-27T11:53:03.839Z,28.95
2019-02-27T11:54:04.333Z,29.14
2019-02-27T11:55:03.710Z,28.73
2019-02-27T11:56:03.759Z,28.88
2019-02-27T11:57:03.805Z,28.74
2019-02-27T11:58:05.366Z,27.94
2019-02-27T11:59:03.904Z,28.78
2019-02-27T12:00:03.949Z,29.23
2019-02-27T12:01:03.998Z,29.87
2019-02-27T12:02:04.247Z,29.42
2019-02-27T12:03:04.117Z,30.26
2019-02-27T12:04:04.142Z,30.24
2019-02-27T12:05:04.190Z,29.28
2019-02-27T12:06:05.314Z,29.30
2019-02-27T12:07:04.313Z,29.60
2019-02-27T12:08:04.336Z,28.09
2019-02-27T12:09:04.383Z,28.25
2019-02-27T12:10:06.599Z,29.33
2019-02-27T12:11:04.482Z,29.30
2019-02-27T12:12:04.530Z,29.55
2019-02-27T12:13:04.578Z,29.92
2019-02-27T12:14:06.556Z,29.39
2019-02-27T12:15:06.774Z,28.04
2019-02-27T12:16:04.725Z,27.84
2019-02-27T12:17:04.773Z,28.67
2019-02-27T12:18:04.822Z,28.19
2019-02-27T12:19:06.439Z,28.30
2019-02-27T12:20:04.920Z,28.66
2019-02-27T12:21:04.967Z,27.96
2019-02-27T12:22:05.016Z,29.41
2019-02-27T12:23:07.567Z,29.68
2019-02-27T12:24:05.489Z,28.77
2019-02-27T12:25:05.162Z,28.11
2019-02-27T12:26:05.210Z,28.58
2019-02-27T12:27:07.171Z,29.18
2019-02-27T12:28:05.309Z,28.95
2019-02-27T12:29:05.359Z,29.42
2019-02-27T12:30:05.430Z,30.05
2019-02-27T12:31:08.095Z,29.70
2019-02-27T12:32:06.147Z,29.05
2019-02-27T12:33:05.553Z,29.19
2019-02-27T12:34:05.836Z,29.52
2019-02-27T12:35:08.228Z,28.17
2019-02-27T12:36:05.926Z,28.51
2019-02-27T12:38:08.221Z,28.96
2019-02-27T12:39:06.679Z,28.71
2019-02-27T12:40:05.927Z,29.27
2019-02-27T12:41:06.173Z,28.96
2019-02-27T12:42:07.098Z,29.05
2019-02-27T12:43:06.572Z,29.30
2019-02-27T12:44:06.315Z,29.26
2019-02-27T12:45:06.162Z,28.89
2019-02-27T12:46:06.200Z,29.12
2019-02-27T12:47:06.293Z,28.93
2019-02-27T12:48:06.284Z,27.32
2019-02-27T12:49:06.333Z,26.76
2019-02-27T12:50:06.404Z,27.96
2019-02-27T12:51:06.428Z,28.18
2019-02-27T12:52:08.956Z,27.93
2019-02-27T12:53:06.524Z,28.09
2019-02-27T12:54:06.573Z,27.65
2019-02-27T12:55:06.622Z,28.02
2019-02-27T12:56:07.814Z,27.85
2019-02-27T12:57:06.717Z,27.49
2019-02-27T12:58:07.095Z,28.03
2019-02-27T13:00:08.437Z,27.92
2019-02-27T13:01:07.651Z,27.21
2019-02-27T13:03:09.317Z,28.52
2019-02-27T13:04:07.079Z,29.43
2019-02-27T13:05:07.527Z,27.51
2019-02-27T13:08:07.273Z,26.94
2019-02-27T13:10:07.364Z,27.46
2019-02-27T13:11:08.002Z,27.57
2019-02-27T13:12:07.641Z,28.31
2019-02-27T13:13:07.515Z,27.92
2019-02-27T13:14:07.535Z,28.77
2019-02-27T13:15:07.606Z,27.63
2019-02-27T13:16:07.657Z,27.92
2019-02-27T13:17:07.678Z,27.99
2019-02-27T13:18:07.950Z,28.81
2019-02-27T13:19:08.352Z,29.23
2019-02-27T13:20:09.047Z,29.82
2019-02-27T13:21:09.310Z,29.87
2019-02-27T13:22:07.945Z,30.29
2019-02-27T13:23:07.967Z,30.16
2019-02-27T13:24:08.017Z,30.13
2019-02-27T13:25:08.063Z,30.37
2019-02-27T13:26:08.135Z,29.82
2019-02-27T13:27:09.364Z,30.32
2019-02-27T13:28:08.234Z,29.92
2019-02-27T13:29:08.256Z,29.64
2019-02-27T13:30:09.223Z,29.73
2019-02-27T13:31:08.355Z,30.07
2019-02-27T13:32:08.953Z,29.58
2019-02-27T13:33:08.450Z,29.63
2019-02-27T13:34:13.488Z,29.09
2019-02-27T13:35:08.749Z,28.66
2019-02-27T13:36:08.597Z,28.93
2019-02-27T13:37:10.139Z,27.94
2019-02-27T13:39:08.762Z,28.74
2019-02-27T13:40:09.294Z,28.98
2019-02-27T13:42:08.907Z,29.57
2019-02-27T13:43:09.157Z,29.51
2019-02-27T13:46:09.099Z,29.33
2019-02-27T13:47:09.554Z,29.97
2019-02-27T13:48:09.201Z,30.23
2019-02-27T13:49:11.396Z,30.00
2019-02-27T13:50:09.292Z,29.86
2019-02-27T13:51:09.318Z,30.00
2019-02-27T13:52:12.333Z,30.01
2019-02-27T13:53:09.466Z,29.82
2019-02-27T13:54:09.486Z,30.46
2019-02-27T13:55:11.224Z,29.42
2019-02-27T13:56:09.586Z,30.57
2019-02-27T13:57:10.242Z,30.47
2019-02-27T13:58:09.678Z,30.53
2019-02-27T13:59:11.061Z,29.94
2019-02-27T14:00:09.753Z,30.02
2019-02-27T14:01:12.077Z,29.63
2019-02-27T14:02:11.400Z,29.57
2019-02-27T14:03:12.788Z,30.31
2019-02-27T14:04:09.968Z,29.82
2019-02-27T14:05:09.991Z,29.65
2019-02-27T14:06:10.294Z,30.26
2019-02-27T14:08:10.162Z,30.31
2019-02-27T14:09:10.204Z,30.57
2019-02-27T14:10:10.809Z,30.35
2019-02-27T14:12:10.353Z,29.64
2019-02-27T14:13:10.599Z,29.76
2019-02-27T14:14:10.449Z,29.89
2019-02-27T14:15:10.779Z,30.24
2019-02-27T14:16:10.747Z,30.05
2019-02-27T14:17:11.426Z,28.86
2019-02-27T14:18:13.447Z,28.29
2019-02-27T14:19:11.196Z,28.21
2019-02-27T14:20:10.713Z,28.04
2019-02-27T14:21:10.986Z,28.25
2019-02-27T14:22:10.808Z,29.55
2019-02-27T14:23:11.928Z,29.12
2019-02-27T14:25:10.989Z,28.92
2019-02-27T14:26:11.001Z,28.98
2019-02-27T14:27:12.078Z,29.61
2019-02-27T14:29:11.168Z,28.25
2019-02-27T14:30:11.192Z,30.08
2019-02-27T14:31:13.119Z,29.92
2019-02-27T14:32:11.310Z,30.20
2019-02-27T14:33:11.624Z,30.15
2019-02-27T14:34:11.612Z,29.82
2019-02-27T14:35:11.453Z,29.04
2019-02-27T14:36:11.715Z,29.28
2019-02-27T14:37:16.225Z,28.41
2019-02-27T14:38:11.597Z,28.67
2019-02-27T14:39:11.648Z,27.43
2019-02-27T14:40:11.698Z,27.84
2019-02-27T14:41:14.565Z,28.78
2019-02-27T14:42:12.204Z,29.14
2019-02-27T14:43:12.048Z,29.00
2019-02-27T14:51:54.754Z,27.97
2019-02-27T14:52:54.801Z,27.94
2019-02-27T14:53:55.799Z,28.03
2019-02-27T14:54:54.901Z,28.81
2019-02-27T14:55:54.943Z,29.12
2019-02-27T14:56:55.007Z,29.64
2019-02-27T14:57:55.040Z,29.26
2019-02-27T14:58:56.600Z,28.49
2019-02-27T14:59:55.132Z,28.86
2019-02-27T15:00:55.182Z,29.34
2019-02-27T15:01:55.228Z,28.90
2019-02-27T15:02:55.973Z,27.29
2019-02-27T15:03:55.322Z,28.70
2019-02-27T15:04:55.368Z,28.64
2019-02-27T15:05:55.418Z,27.59
2019-02-27T15:06:56.865Z,25.08
2019-02-27T15:07:55.534Z,24.22
2019-02-27T15:08:58.182Z,24.18
2019-02-27T15:09:56.988Z,23.40
2019-02-27T15:10:55.648Z,22.91
2019-02-27T15:11:55.693Z,21.82
2019-02-27T15:12:55.753Z,21.68
2019-02-27T15:13:55.785Z,21.27
2019-02-27T15:14:55.827Z,20.51
2019-02-27T15:15:55.873Z,19.96
2019-02-27T15:16:55.916Z,19.77
2019-02-27T15:17:55.960Z,19.46
2019-02-27T15:18:56.053Z,19.46
2019-02-27T15:19:56.047Z,18.91
2019-02-27T15:20:56.090Z,18.44
2019-02-27T15:21:56.129Z,17.96
2019-02-27T15:22:57.385Z,17.81
2019-02-27T15:23:58.097Z,17.63
2019-02-27T15:24:56.252Z,17.62